createdAt,value
2019-03-19T00:02:24.307Z,1.50
2019-03-19T00:04:54.516Z,1.50
2019-03-19T00:07:24.704Z,1.40
2019-03-19T00:09:54.766Z,1.40
2019-03-19T00:12:24.988Z,1.30
2019-03-19T00:14:55.131Z,1.30
2019-03-19T00:17:25.382Z,1.30
2019-03-19T00:19:55.496Z,1.30
2019-03-19T00:22:25.981Z,1.40
2019-03-19T00:24:56.065Z,1.40
2019-03-19T00:27:26.129Z,1.50
2019-03-19T00:29:56.237Z,1.50
2019-03-19T00:32:26.324Z,1.50
2019-03-19T00:34:56.439Z,1.40
2019-03-19T00:37:26.625Z,1.40
2019-03-19T00:39:56.781Z,1.40
2019-03-19T00:42:27.032Z,1.30
2019-03-19T00:44:57.845Z,1.20
2019-03-19T00:47:29.897Z,1.20
2019-03-19T00:50:00.524Z,1.20
2019-03-19T00:52:30.809Z,1.20
2019-03-19T00:55:00.904Z,1.10
2019-03-19T00:57:31.240Z,1.10
2019-03-19T01:00:01.493Z,1.00
2019-03-19T01:02:31.648Z,1.00
2019-03-19T01:05:01.767Z,0.90
2019-03-19T01:07:33.695Z,0.90
2019-03-19T01:10:05.557Z,0.90
2019-03-19T01:12:35.671Z,0.80
2019-03-19T01:15:07.418Z,0.80
2019-03-19T01:17:37.750Z,0.80
2019-03-19T01:20:09.767Z,0.80
2019-03-19T01:22:39.985Z,0.80
2019-03-19T01:25:10.852Z,0.80
2019-03-19T01:27:41.038Z,0.90
2019-03-19T01:30:11.745Z,1.00
2019-03-19T01:32:42.531Z,1.10
2019-03-19T01:35:12.957Z,1.20
2019-03-19T01:37:43.311Z,1.20
2019-03-19T01:40:13.487Z,1.20
2019-03-19T01:42:43.702Z,1.20
2019-03-19T01:45:14.004Z,1.10
2019-03-19T01:47:45.074Z,1.10
2019-03-19T01:50:17.028Z,1.00
2019-03-19T01:52:47.456Z,1.00
2019-03-19T01:55:17.609Z,1.00
2019-03-19T01:57:47.689Z,1.00
2019-03-19T02:00:18.156Z,1.00
2019-03-19T02:02:48.315Z,0.90
2019-03-19T02:05:18.952Z,0.90
2019-03-19T02:07:51.053Z,0.90
2019-03-19T02:10:21.250Z,0.90
2019-03-19T02:12:51.351Z,1.00
2019-03-19T02:15:21.707Z,1.00
2019-03-19T02:17:51.864Z,1.00
2019-03-19T02:20:21.942Z,0.90
2019-03-19T02:22:52.103Z,0.90
2019-03-19T02:25:22.214Z,0.90
2019-03-19T02:27:52.341Z,1.00
2019-03-19T02:30:22.598Z,1.00
2019-03-19T02:32:52.893Z,0.90
2019-03-19T02:35:23.014Z,0.90
2019-03-19T02:37:53.182Z,0.90
2019-03-19T02:40:23.532Z,0.90
2019-03-19T02:42:53.686Z,1.00
2019-03-19T02:45:23.780Z,1.00
2019-03-19T02:47:54.089Z,1.00
2019-03-19T02:50:24.281Z,1.00
2019-03-19T02:52:54.361Z,1.00
2019-03-19T02:55:24.379Z,1.00
2019-03-19T02:57:54.530Z,1.00
2019-03-19T03:00:25.114Z,1.00
2019-03-19T03:02:55.321Z,1.00
2019-03-19T03:05:25.338Z,1.00
2019-03-19T03:07:55.556Z,1.00
2019-03-19T03:10:29.958Z,1.00
2019-03-19T03:13:01.978Z,0.90
2019-03-19T03:15:32.577Z,1.00
2019-03-19T03:18:04.007Z,1.10
2019-03-19T03:20:34.041Z,1.10
2019-03-19T03:23:04.208Z,1.00
2019-03-19T03:25:34.331Z,0.90
2019-03-19T03:28:04.824Z,0.90
2019-03-19T03:30:35.016Z,0.90
2019-03-19T03:33:05.421Z,0.90
2019-03-19T03:35:35.599Z,0.90
2019-03-19T03:38:05.841Z,0.80
2019-03-19T03:40:35.942Z,0.70
2019-03-19T03:43:06.221Z,0.70
2019-03-19T03:45:36.666Z,0.70
2019-03-19T03:48:06.835Z,0.70
2019-03-19T03:50:36.988Z,0.60
2019-03-19T03:53:07.148Z,0.60
2019-03-19T03:55:37.556Z,0.60
2019-03-19T03:58:07.881Z,0.50
2019-03-19T04:00:38.104Z,0.40
2019-03-19T04:03:09.761Z,0.40
2019-03-19T04:05:39.877Z,0.40
2019-03-19T04:08:09.921Z,0.40
2019-03-19T04:10:39.971Z,0.40
2019-03-19T04:13:10.060Z,0.40
2019-03-19T04:15:40.357Z,0.50
2019-03-19T04:18:10.495Z,0.50
2019-03-19T04:20:43.373Z,0.50
2019-03-19T04:23:13.544Z,0.50
2019-03-19T04:25:43.605Z,0.50
2019-03-19T04:28:13.724Z,0.50
2019-03-19T04:30:43.845Z,0.50
2019-03-19T04:33:14.092Z,0.60
2019-03-19T04:35:44.286Z,0.60
2019-03-19T04:38:14.370Z,0.60
2019-03-19T04:40:46.375Z,0.60
2019-03-19T04:43:16.587Z,0.60
2019-03-19T04:45:46.745Z,0.60
2019-03-19T04:48:16.796Z,0.60
2019-03-19T04:50:46.914Z,0.60
2019-03-19T04:53:17.069Z,0.70
2019-03-19T04:55:47.295Z,0.70
2019-03-19T04:58:17.461Z,0.80
2019-03-19T05:00:47.601Z,0.90
2019-03-19T05:03:18.183Z,0.90
2019-03-19T05:05:49.449Z,1.00
2019-03-19T05:08:21.084Z,1.10
2019-03-19T05:10:51.200Z,1.10
2019-03-19T05:13:21.400Z,1.10
2019-03-19T05:15:51.901Z,1.10
2019-03-19T05:18:22.200Z,1.10
2019-03-19T05:20:52.355Z,1.10
2019-03-19T05:23:22.508Z,1.10
2019-03-19T05:25:52.799Z,1.00
2019-03-19T05:28:24.551Z,1.00
2019-03-19T05:30:55.154Z,0.90
2019-03-19T05:33:26.179Z,0.80
2019-03-19T05:35:56.344Z,0.80
2019-03-19T05:38:26.913Z,0.80
2019-03-19T05:40:57.145Z,0.80
2019-03-19T05:43:27.333Z,0.80
2019-03-19T05:45:57.437Z,0.80
2019-03-19T05:48:27.536Z,0.80
2019-03-19T05:50:57.584Z,0.80
2019-03-19T05:53:28.922Z,0.90
2019-03-19T05:55:59.032Z,1.00
2019-03-19T05:58:29.265Z,1.00
2019-03-19T06:00:59.297Z,1.10
2019-03-19T06:03:29.410Z,1.20
2019-03-19T06:05:59.466Z,1.20
2019-03-19T06:08:29.682Z,1.20
2019-03-19T06:10:59.942Z,1.10
2019-03-19T06:13:30.087Z,1.10
2019-03-19T06:16:00.234Z,1.10
2019-03-19T06:18:35.058Z,1.20
2019-03-19T06:21:02.417Z,1.20
2019-03-19T06:23:32.676Z,1.20
2019-03-19T06:26:02.810Z,1.20
2019-03-19T06:28:35.512Z,1.20
2019-03-19T06:31:04.843Z,1.20
2019-03-19T06:33:35.009Z,1.30
2019-03-19T06:36:05.152Z,1.30
2019-03-19T06:38:35.308Z,1.30
2019-03-19T06:41:06.857Z,1.40
2019-03-19T06:43:36.952Z,1.40
2019-03-19T06:46:07.674Z,1.50
2019-03-19T06:48:37.977Z,1.50
2019-03-19T06:51:08.277Z,1.60
2019-03-19T06:53:38.546Z,1.60
2019-03-19T06:56:08.681Z,1.70
2019-03-19T06:58:38.790Z,1.80
2019-03-19T07:01:09.037Z,1.90
2019-03-19T07:03:39.300Z,2.00
2019-03-19T07:06:09.343Z,2.00
2019-03-19T07:08:39.759Z,2.00
2019-03-19T07:11:09.862Z,2.10
2019-03-19T07:13:40.181Z,2.20
2019-03-19T07:16:10.356Z,2.30
2019-03-19T07:18:40.646Z,2.30
2019-03-19T07:21:10.766Z,2.40
2019-03-19T07:23:41.100Z,2.50
2019-03-19T07:26:11.227Z,2.70
2019-03-19T07:28:41.432Z,3.00
2019-03-19T07:31:11.596Z,3.10
2019-03-19T07:33:41.705Z,3.10
2019-03-19T07:36:11.744Z,3.20
2019-03-19T07:38:42.074Z,3.20
2019-03-19T07:41:15.675Z,3.30
2019-03-19T07:43:46.714Z,3.30
2019-03-19T07:46:19.295Z,3.40
2019-03-19T07:48:50.843Z,3.50
2019-03-19T07:51:21.048Z,3.60
2019-03-19T07:53:51.272Z,3.70
2019-03-19T07:56:21.562Z,3.80
2019-03-19T07:58:54.175Z,3.90
2019-03-19T08:01:27.371Z,4.00
2019-03-19T08:03:57.711Z,4.20
2019-03-19T08:06:27.983Z,4.30
2019-03-19T08:09:00.102Z,4.40
2019-03-19T08:11:30.208Z,4.50
2019-03-19T08:14:00.944Z,4.60
2019-03-19T08:16:31.152Z,4.80
2019-03-19T08:19:01.234Z,4.90
2019-03-19T08:21:31.722Z,5.00
2019-03-19T08:24:01.896Z,5.20
2019-03-19T08:26:32.163Z,5.30
2019-03-19T08:29:02.656Z,5.40
2019-03-19T08:31:35.034Z,5.50
2019-03-19T08:34:05.166Z,5.60
2019-03-19T08:36:35.206Z,5.70
2019-03-19T08:39:08.372Z,5.90
2019-03-19T08:41:38.456Z,6.10
2019-03-19T08:44:08.597Z,6.30
2019-03-19T08:46:39.555Z,6.40
2019-03-19T08:49:09.876Z,6.50
2019-03-19T08:51:40.696Z,6.70
2019-03-19T08:54:10.860Z,6.80
2019-03-19T08:56:40.932Z,6.90
2019-03-19T08:59:11.094Z,7.00
2019-03-19T09:01:41.122Z,7.10
2019-03-19T09:04:11.283Z,7.30
2019-03-19T09:06:41.438Z,7.40
2019-03-19T09:09:11.744Z,7.50
2019-03-19T09:11:41.760Z,7.60
2019-03-19T09:14:11.952Z,7.70
2019-03-19T09:16:42.227Z,7.90
2019-03-19T09:19:12.432Z,7.90
2019-03-19T09:21:42.648Z,7.80
2019-03-19T09:24:12.753Z,8.00
2019-03-19T09:26:43.097Z,8.10
2019-03-19T09:29:17.186Z,8.30
2019-03-19T09:31:45.018Z,8.40
2019-03-19T09:34:15.201Z,8.50
2019-03-19T09:36:45.317Z,8.50
2019-03-19T09:39:15.374Z,8.60
2019-03-19T09:41:45.389Z,8.60
2019-03-19T09:44:15.555Z,8.60
2019-03-19T09:46:45.656Z,8.60
2019-03-19T09:49:15.739Z,8.70
2019-03-19T09:51:45.890Z,8.80
2019-03-19T09:54:16.303Z,9.00
2019-03-19T09:56:46.888Z,9.10
2019-03-19T09:59:26.554Z,9.20
2019-03-19T10:01:48.766Z,9.20
2019-03-19T10:04:18.890Z,9.30
2019-03-19T10:06:49.084Z,9.40
2019-03-19T10:09:19.288Z,9.40
2019-03-19T10:11:49.453Z,9.40
2019-03-19T10:14:20.953Z,9.50
2019-03-19T10:16:51.126Z,9.60
2019-03-19T10:19:21.171Z,9.60
2019-03-19T10:21:51.295Z,9.70
2019-03-19T10:24:21.557Z,9.70
2019-03-19T10:26:51.576Z,9.80
2019-03-19T10:29:21.794Z,9.90
2019-03-19T10:31:56.619Z,10.00
2019-03-19T10:34:26.687Z,10.00
2019-03-19T10:36:56.729Z,10.10
2019-03-19T10:39:26.856Z,10.20
2019-03-19T10:41:56.901Z,10.40
2019-03-19T10:44:27.041Z,10.60
2019-03-19T10:46:57.103Z,10.80
2019-03-19T10:49:27.253Z,10.90
2019-03-19T10:51:57.626Z,11.20
2019-03-19T10:54:27.748Z,11.30
2019-03-19T10:56:57.869Z,11.40
2019-03-19T10:59:28.094Z,11.50
2019-03-19T11:01:58.307Z,11.50
2019-03-19T11:04:28.540Z,11.80
2019-03-19T11:06:58.887Z,12.20
2019-03-19T11:09:29.116Z,12.60
2019-03-19T11:11:59.158Z,12.80
2019-03-19T11:14:29.296Z,12.90
2019-03-19T11:16:59.600Z,13.00
2019-03-19T11:19:29.761Z,13.20
2019-03-19T11:21:59.939Z,13.40
2019-03-19T11:24:30.209Z,13.50
2019-03-19T11:27:00.255Z,13.60
2019-03-19T11:29:30.646Z,13.90
2019-03-19T11:32:00.688Z,14.00
2019-03-19T11:34:30.913Z,14.10
2019-03-19T11:37:01.097Z,13.80
2019-03-19T11:39:31.383Z,13.50
2019-03-19T11:42:01.523Z,13.10
2019-03-19T11:44:31.861Z,13.00
2019-03-19T11:47:01.882Z,13.00
2019-03-19T11:49:32.037Z,13.10
2019-03-19T11:52:02.094Z,13.30
2019-03-19T11:54:32.503Z,13.60
2019-03-19T11:57:02.707Z,13.90
2019-03-19T11:59:32.871Z,14.10
2019-03-19T12:02:03.343Z,14.20
2019-03-19T12:04:33.467Z,14.20
2019-03-19T12:07:03.552Z,14.30
2019-03-19T12:09:34.121Z,14.20
2019-03-19T12:12:04.216Z,14.30
2019-03-19T12:14:34.398Z,14.50
2019-03-19T12:17:04.535Z,14.30
2019-03-19T12:19:34.725Z,14.10
2019-03-19T12:22:04.896Z,13.90
2019-03-19T12:24:34.981Z,13.90
2019-03-19T12:27:06.256Z,14.00
2019-03-19T12:29:36.456Z,13.90
2019-03-19T12:32:06.491Z,13.80
2019-03-19T12:34:36.705Z,13.60
2019-03-19T12:37:06.944Z,13.40
2019-03-19T12:39:37.102Z,13.30
2019-03-19T12:42:07.228Z,13.20
2019-03-19T12:44:37.476Z,13.30
2019-03-19T12:47:07.785Z,13.40
2019-03-19T12:49:37.852Z,13.60
2019-03-19T12:52:08.012Z,13.80
2019-03-19T12:54:38.280Z,14.10
2019-03-19T12:57:08.330Z,14.30
2019-03-19T12:59:38.747Z,14.50
2019-03-19T13:02:08.910Z,14.80
2019-03-19T13:04:39.022Z,15.10
2019-03-19T13:07:09.168Z,15.10
2019-03-19T13:09:40.448Z,14.90
2019-03-19T13:12:10.535Z,14.70
2019-03-19T13:14:41.001Z,14.80
2019-03-19T13:17:11.169Z,14.70
2019-03-19T13:19:41.207Z,14.80
2019-03-19T13:22:12.596Z,15.00
2019-03-19T13:24:42.889Z,15.10
2019-03-19T13:27:12.931Z,15.20
2019-03-19T13:29:43.068Z,15.00
2019-03-19T13:32:13.226Z,15.00
2019-03-19T13:34:43.419Z,14.90
2019-03-19T13:37:13.699Z,14.70
2019-03-19T13:39:43.839Z,14.70
2019-03-19T13:42:13.870Z,14.80
2019-03-19T13:44:46.977Z,15.00
2019-03-19T13:47:17.276Z,15.10
2019-03-19T13:49:47.538Z,15.00
2019-03-19T13:52:17.667Z,15.20
2019-03-19T13:54:48.819Z,15.20
2019-03-19T13:57:19.189Z,15.40
2019-03-19T13:59:49.246Z,15.50
2019-03-19T14:02:19.465Z,15.60
2019-03-19T14:04:49.710Z,15.70
2019-03-19T14:07:19.861Z,15.70
2019-03-19T14:09:50.044Z,15.80
2019-03-19T14:12:20.080Z,15.80
2019-03-19T14:14:50.140Z,15.70
2019-03-19T14:17:20.212Z,15.70
2019-03-19T14:19:51.301Z,15.60
2019-03-19T14:22:21.521Z,15.50
2019-03-19T14:24:51.600Z,15.30
2019-03-19T14:27:21.647Z,15.20
2019-03-19T14:29:51.843Z,15.10
2019-03-19T14:32:22.015Z,15.00
2019-03-19T14:34:52.068Z,14.70
2019-03-19T14:37:22.205Z,14.60
2019-03-19T14:39:52.456Z,14.50
2019-03-19T14:42:22.592Z,14.40
2019-03-19T14:44:52.888Z,14.30
2019-03-19T14:47:22.993Z,14.40
2019-03-19T14:49:53.153Z,14.30
2019-03-19T14:52:23.230Z,14.20
2019-03-19T14:54:53.365Z,14.00
2019-03-19T14:57:23.419Z,13.90
2019-03-19T14:59:53.501Z,13.90
2019-03-19T15:02:23.586Z,13.90
2019-03-19T15:04:53.678Z,13.80
2019-03-19T15:07:23.796Z,13.70
2019-03-19T15:09:53.909Z,13.80
2019-03-19T15:12:24.073Z,13.70
2019-03-19T15:14:54.198Z,13.60
2019-03-19T15:17:24.307Z,13.60
2019-03-19T15:19:54.475Z,13.60
2019-03-19T15:22:32.543Z,13.50
2019-03-19T15:24:56.775Z,13.50
2019-03-19T15:27:26.802Z,13.60
2019-03-19T15:29:57.044Z,13.50
2019-03-19T15:32:27.156Z,13.50
2019-03-19T15:34:57.320Z,13.40
2019-03-19T15:37:27.387Z,13.30
2019-03-19T15:39:57.629Z,13.10
2019-03-19T15:42:27.763Z,12.90
2019-03-19T15:44:57.823Z,12.80
2019-03-19T15:47:27.941Z,12.70
2019-03-19T15:49:58.079Z,12.70
2019-03-19T15:52:28.257Z,12.60
2019-03-19T15:54:58.449Z,12.50
2019-03-19T15:57:28.645Z,12.50
2019-03-19T15:59:59.046Z,12.40
2019-03-19T16:02:29.140Z,12.30
2019-03-19T16:04:59.305Z,12.20
2019-03-19T16:07:31.068Z,12.10
2019-03-19T16:10:01.211Z,12.10
2019-03-19T16:12:33.002Z,12.10
2019-03-19T16:15:03.440Z,12.10
2019-03-19T16:17:33.728Z,12.10
2019-03-19T16:20:04.433Z,12.10
2019-03-19T16:22:34.525Z,12.10
2019-03-19T16:25:04.994Z,12.00
2019-03-19T16:27:35.113Z,12.00
2019-03-19T16:30:06.329Z,12.00
2019-03-19T16:32:38.821Z,12.00
2019-03-19T16:35:08.545Z,12.00
2019-03-19T16:37:38.855Z,11.90
2019-03-19T16:40:12.468Z,11.90
2019-03-19T16:42:42.536Z,11.80
2019-03-19T16:45:12.830Z,11.80
2019-03-19T16:47:44.809Z,11.70
2019-03-19T16:50:16.453Z,11.70
2019-03-19T16:52:46.922Z,11.60
2019-03-19T16:55:17.187Z,11.60
2019-03-19T16:57:47.217Z,11.60
2019-03-19T17:00:18.004Z,11.50
2019-03-19T17:02:48.059Z,11.40
2019-03-19T17:05:18.437Z,11.40
2019-03-19T17:07:48.547Z,11.30
2019-03-19T17:10:18.645Z,11.30
2019-03-19T17:12:49.531Z,11.30
2019-03-19T17:15:19.618Z,11.30
2019-03-19T17:17:49.721Z,11.30
2019-03-19T17:20:19.902Z,11.30
2019-03-19T17:22:50.088Z,11.10
2019-03-19T17:25:20.209Z,11.10
2019-03-19T17:27:50.349Z,11.00
2019-03-19T17:30:22.442Z,11.00
2019-03-19T17:32:53.648Z,11.00
2019-03-19T17:35:23.740Z,10.90
2019-03-19T17:37:54.824Z,10.80
2019-03-19T17:40:24.996Z,10.80
2019-03-19T17:42:55.121Z,10.80
2019-03-19T17:45:25.252Z,10.70
2019-03-19T17:47:55.411Z,10.70
2019-03-19T17:50:25.962Z,10.60
2019-03-19T17:52:56.199Z,10.50
2019-03-19T17:55:26.463Z,10.50
2019-03-19T17:57:56.669Z,10.40
2019-03-19T18:00:28.776Z,10.40
2019-03-19T18:02:58.955Z,10.30
2019-03-19T18:05:29.072Z,10.20
2019-03-19T18:07:59.415Z,10.20
2019-03-19T18:10:29.605Z,10.10
2019-03-19T18:12:59.860Z,10.10
2019-03-19T18:15:30.109Z,9.90
2019-03-19T18:18:00.239Z,9.80
2019-03-19T18:20:30.370Z,9.80
2019-03-19T18:23:00.639Z,9.60
2019-03-19T18:25:31.893Z,9.50
2019-03-19T18:28:01.920Z,9.50
2019-03-19T18:30:32.317Z,9.40
2019-03-19T18:33:02.359Z,9.30
2019-03-19T18:35:32.574Z,9.10
2019-03-19T18:38:02.745Z,9.10
2019-03-19T18:40:33.119Z,9.00
2019-03-19T18:43:03.230Z,8.90
2019-03-19T18:45:34.199Z,8.80
2019-03-19T18:48:04.691Z,8.70
2019-03-19T18:50:34.850Z,8.60
2019-03-19T18:53:05.115Z,8.60
2019-03-19T18:55:35.362Z,8.60
2019-03-19T18:58:05.482Z,8.60
2019-03-19T19:00:39.777Z,8.60
2019-03-19T19:03:09.899Z,8.60
2019-03-19T19:05:40.174Z,8.50
2019-03-19T19:08:12.650Z,8.50
2019-03-19T19:10:42.798Z,8.50
2019-03-19T19:13:13.442Z,8.50
2019-03-19T19:15:44.924Z,8.40
2019-03-19T19:18:15.116Z,8.40
2019-03-19T19:20:45.468Z,8.40
2019-03-19T19:23:15.558Z,8.40
2019-03-19T19:25:45.869Z,8.40
2019-03-19T19:28:16.129Z,8.40
2019-03-19T19:30:46.260Z,8.40
2019-03-19T19:33:16.499Z,8.40
2019-03-19T19:35:47.744Z,8.30
2019-03-19T19:38:17.880Z,8.30
2019-03-19T19:40:49.240Z,8.20
2019-03-19T19:43:19.380Z,8.20
2019-03-19T19:45:49.539Z,8.10
2019-03-19T19:48:19.585Z,8.10
2019-03-19T19:50:49.666Z,8.10
2019-03-19T19:53:19.691Z,8.00
2019-03-19T19:55:50.090Z,8.00
2019-03-19T19:58:22.091Z,8.00
2019-03-19T20:00:52.200Z,8.00
2019-03-19T20:03:22.436Z,7.90
2019-03-19T20:05:52.985Z,7.90
2019-03-19T20:08:23.079Z,7.90
2019-03-19T20:10:53.121Z,7.80
2019-03-19T20:13:23.551Z,7.80
2019-03-19T20:15:53.633Z,7.70
2019-03-19T20:18:23.749Z,7.70
2019-03-19T20:20:53.802Z,7.70
2019-03-19T20:23:32.653Z,7.70
2019-03-19T20:26:03.121Z,7.60
2019-03-19T20:28:33.455Z,7.60
2019-03-19T20:31:03.649Z,7.60
2019-03-19T20:33:33.855Z,7.50
2019-03-19T20:36:04.189Z,7.50
2019-03-19T20:38:34.462Z,7.50
2019-03-19T20:41:04.704Z,7.50
2019-03-19T20:43:34.752Z,7.50
2019-03-19T20:46:05.282Z,7.60
2019-03-19T20:48:38.535Z,7.60
2019-03-19T20:51:08.700Z,7.60
2019-03-19T20:53:40.998Z,7.70
2019-03-19T20:56:11.313Z,7.80
2019-03-19T20:58:43.720Z,7.90
2019-03-19T21:01:13.459Z,7.90
2019-03-19T21:03:43.805Z,8.00
2019-03-19T21:06:13.957Z,8.00
2019-03-19T21:08:44.080Z,8.10
2019-03-19T21:11:14.196Z,8.10
2019-03-19T21:13:45.925Z,8.10
2019-03-19T21:16:16.548Z,8.00
2019-03-19T21:18:46.964Z,8.00
2019-03-19T21:21:17.085Z,8.00
2019-03-19T21:23:47.176Z,8.00
2019-03-19T21:26:17.749Z,8.00
2019-03-19T21:28:48.360Z,8.00
2019-03-19T21:31:18.773Z,7.90
2019-03-19T21:33:51.340Z,7.90
2019-03-19T21:36:20.635Z,7.90
2019-03-19T21:38:50.839Z,7.90
2019-03-19T21:41:24.626Z,7.90
2019-03-19T21:43:54.789Z,7.90
2019-03-19T21:46:24.997Z,7.80
2019-03-19T21:48:55.008Z,7.90
2019-03-19T21:51:25.132Z,7.90
2019-03-19T21:53:55.556Z,7.90
2019-03-19T21:56:25.628Z,7.90
2019-03-19T21:58:55.746Z,7.90
2019-03-19T22:01:26.079Z,7.80
2019-03-19T22:04:02.979Z,7.90
2019-03-19T22:06:27.866Z,7.90
2019-03-19T22:08:57.887Z,7.80
2019-03-19T22:11:27.983Z,7.80
2019-03-19T22:13:58.007Z,7.70
2019-03-19T22:16:28.195Z,7.60
2019-03-19T22:18:58.273Z,7.60
2019-03-19T22:21:28.410Z,7.50
2019-03-19T22:23:58.445Z,7.40
2019-03-19T22:26:29.020Z,7.30
2019-03-19T22:28:59.176Z,7.30
2019-03-19T22:31:29.991Z,7.20
2019-03-19T22:34:00.108Z,7.20
2019-03-19T22:36:30.448Z,7.10
2019-03-19T22:39:00.570Z,7.10
2019-03-19T22:41:30.663Z,7.10
2019-03-19T22:44:00.856Z,7.20
2019-03-19T22:46:30.956Z,7.20
2019-03-19T22:49:01.012Z,7.20
2019-03-19T22:51:31.192Z,7.20
2019-03-19T22:54:01.216Z,7.20
2019-03-19T22:56:31.553Z,7.20
2019-03-19T22:59:01.694Z,7.10
2019-03-19T23:01:31.783Z,7.10
2019-03-19T23:04:01.840Z,7.10
2019-03-19T23:06:32.198Z,7.10
2019-03-19T23:09:02.251Z,7.00
2019-03-19T23:11:32.468Z,7.00
2019-03-19T23:14:02.567Z,7.00
2019-03-19T23:16:33.695Z,6.90
2019-03-19T23:19:04.316Z,6.80
2019-03-19T23:21:34.664Z,6.80
2019-03-19T23:24:05.430Z,6.70
2019-03-19T23:26:36.837Z,6.60
2019-03-19T23:29:06.879Z,6.50
2019-03-19T23:31:37.109Z,6.50
2019-03-19T23:34:07.176Z,6.40
2019-03-19T23:36:37.410Z,6.30
2019-03-19T23:39:08.209Z,6.30
2019-03-19T23:41:38.286Z,6.20
2019-03-19T23:44:08.323Z,6.10
2019-03-19T23:46:38.470Z,6.10
2019-03-19T23:49:08.681Z,6.00
2019-03-19T23:51:38.771Z,6.00
2019-03-19T23:54:08.922Z,5.90
2019-03-19T23:56:39.082Z,5.90
2019-03-19T23:59:09.207Z,5.90
